sensor_id;sensor_type;location;lat;lon;timestamp;P1;durP1;ratioP1;P2;durP2;ratioP2
6027;SDS011;3042;43.194;27.646;2022-10-16T00:00:39;98.83;;;52.77;;
6027;SDS011;3042;43.194;27.646;2022-10-16T00:03:07;125.07;;;59.43;;
6027;SDS011;3042;43.194;27.646;2022-10-16T00:05:37;132.73;;;58.97;;
6027;SDS011;3042;43.194;27.646;2022-10-16T00:08:06;153.87;;;58.73;;
6027;SDS011;3042;43.194;27.646;2022-10-16T00:10:34;111.80;;;54.60;;
6027;SDS011;3042;43.194;27.646;2022-10-16T00:13:04;114.87;;;55.20;;
6027;SDS011;3042;43.194;27.646;2022-10-16T00:15:32;134.83;;;61.40;;
6027;SDS011;3042;43.194;27.646;2022-10-16T00:18:01;199.23;;;70.73;;
6027;SDS011;3042;43.194;27.646;2022-10-16T00:20:28;121.23;;;56.20;;
6027;SDS011;3042;43.194;27.646;2022-10-16T00:22:58;134.60;;;55.77;;
6027;SDS011;3042;43.194;27.646;2022-10-16T00:25:25;102.90;;;55.10;;
6027;SDS011;3042;43.194;27.646;2022-10-16T00:27:53;126.43;;;57.20;;
6027;SDS011;3042;43.194;27.646;2022-10-16T00:30:21;175.90;;;55.27;;
6027;SDS011;3042;43.194;27.646;2022-10-16T00:32:49;119.63;;;54.57;;
6027;SDS011;3042;43.194;27.646;2022-10-16T00:35:17;195.43;;;67.20;;
6027;SDS011;3042;43.194;27.646;2022-10-16T00:37:44;166.83;;;61.07;;
6027;SDS011;3042;43.194;27.646;2022-10-16T00:40:11;112.73;;;53.60;;
6027;SDS011;3042;43.194;27.646;2022-10-16T00:42:38;152.97;;;62.13;;
6027;SDS011;3042;43.194;27.646;2022-10-16T00:45:07;249.33;;;72.50;;
6027;SDS011;3042;43.194;27.646;2022-10-16T00:47:38;108.27;;;51.13;;
6027;SDS011;3042;43.194;27.646;2022-10-16T00:50:08;133.57;;;56.27;;
6027;SDS011;3042;43.194;27.646;2022-10-16T00:52:41;96.40;;;47.40;;
6027;SDS011;3042;43.194;27.646;2022-10-16T00:55:12;110.63;;;48.23;;
6027;SDS011;3042;43.194;27.646;2022-10-16T00:57:40;70.33;;;40.60;;
6027;SDS011;3042;43.194;27.646;2022-10-16T01:00:09;150.50;;;59.80;;
6027;SDS011;3042;43.194;27.646;2022-10-16T01:02:39;152.33;;;57.40;;
6027;SDS011;3042;43.194;27.646;2022-10-16T01:05:07;128.30;;;53.93;;
6027;SDS011;3042;43.194;27.646;2022-10-16T01:07:36;81.23;;;44.33;;
6027;SDS011;3042;43.194;27.646;2022-10-16T01:10:14;130.87;;;55.70;;
6027;SDS011;3042;43.194;27.646;2022-10-16T01:12:51;113.83;;;49.40;;
6027;SDS011;3042;43.194;27.646;2022-10-16T01:15:25;144.33;;;52.70;;
6027;SDS011;3042;43.194;27.646;2022-10-16T01:18:00;139.43;;;55.33;;
6027;SDS011;3042;43.194;27.646;2022-10-16T01:20:33;194.37;;;66.17;;
6027;SDS011;3042;43.194;27.646;2022-10-16T01:23:07;134.07;;;53.57;;
6027;SDS011;3042;43.194;27.646;2022-10-16T01:28:38;132.53;;;54.57;;
6027;SDS011;3042;43.194;27.646;2022-10-16T01:31:12;170.57;;;62.70;;
6027;SDS011;3042;43.194;27.646;2022-10-16T01:33:45;119.63;;;53.13;;
6027;SDS011;3042;43.194;27.646;2022-10-16T01:36:15;134.60;;;53.10;;
6027;SDS011;3042;43.194;27.646;2022-10-16T01:38:47;123.50;;;52.37;;
6027;SDS011;3042;43.194;27.646;2022-10-16T01:41:18;164.33;;;59.57;;
6027;SDS011;3042;43.194;27.646;2022-10-16T01:43:53;175.43;;;57.17;;
6027;SDS011;3042;43.194;27.646;2022-10-16T01:46:28;233.77;;;66.70;;
6027;SDS011;3042;43.194;27.646;2022-10-16T01:48:59;130.30;;;51.63;;
6027;SDS011;3042;43.194;27.646;2022-10-16T01:51:29;125.53;;;51.50;;
6027;SDS011;3042;43.194;27.646;2022-10-16T01:53:57;146.93;;;54.80;;
6027;SDS011;3042;43.194;27.646;2022-10-16T01:56:26;126.47;;;50.60;;
6027;SDS011;3042;43.194;27.646;2022-10-16T01:58:57;139.40;;;50.90;;
6027;SDS011;3042;43.194;27.646;2022-10-16T02:01:28;157.47;;;56.43;;
6027;SDS011;3042;43.194;27.646;2022-10-16T02:04:01;199.30;;;62.17;;
6027;SDS011;3042;43.194;27.646;2022-10-16T02:06:32;144.93;;;53.67;;
6027;SDS011;3042;43.194;27.646;2022-10-16T02:08:59;154.37;;;54.47;;
6027;SDS011;3042;43.194;27.646;2022-10-16T02:11:27;167.77;;;56.40;;
6027;SDS011;3042;43.194;27.646;2022-10-16T02:13:57;147.60;;;53.70;;
6027;SDS011;3042;43.194;27.646;2022-10-16T02:16:32;47.10;;;29.90;;
6027;SDS011;3042;43.194;27.646;2022-10-16T02:19:01;103.80;;;46.80;;
6027;SDS011;3042;43.194;27.646;2022-10-16T02:21:31;142.63;;;50.07;;
6027;SDS011;3042;43.194;27.646;2022-10-16T02:24:06;172.30;;;55.70;;
6027;SDS011;3042;43.194;27.646;2022-10-16T02:26:37;151.77;;;55.67;;
6027;SDS011;3042;43.194;27.646;2022-10-16T02:29:11;157.83;;;54.60;;
6027;SDS011;3042;43.194;27.646;2022-10-16T02:31:43;142.90;;;51.63;;
6027;SDS011;3042;43.194;27.646;2022-10-16T02:34:14;158.60;;;55.90;;
6027;SDS011;3042;43.194;27.646;2022-10-16T02:36:44;154.00;;;54.70;;
6027;SDS011;3042;43.194;27.646;2022-10-16T02:39:14;183.03;;;57.57;;
6027;SDS011;3042;43.194;27.646;2022-10-16T02:41:42;158.37;;;54.93;;
6027;SDS011;3042;43.194;27.646;2022-10-16T02:44:11;161.67;;;55.90;;
6027;SDS011;3042;43.194;27.646;2022-10-16T02:46:38;173.40;;;57.70;;
6027;SDS011;3042;43.194;27.646;2022-10-16T02:49:06;117.00;;;48.80;;
6027;SDS011;3042;43.194;27.646;2022-10-16T02:51:33;169.07;;;56.97;;
6027;SDS011;3042;43.194;27.646;2022-10-16T02:54:01;175.63;;;59.07;;
6027;SDS011;3042;43.194;27.646;2022-10-16T02:56:28;163.17;;;57.10;;
6027;SDS011;3042;43.194;27.646;2022-10-16T02:58:56;157.53;;;52.87;;
6027;SDS011;3042;43.194;27.646;2022-10-16T03:01:25;150.00;;;54.63;;
6027;SDS011;3042;43.194;27.646;2022-10-16T03:03:52;126.70;;;49.60;;
6027;SDS011;3042;43.194;27.646;2022-10-16T03:06:19;112.70;;;48.30;;
6027;SDS011;3042;43.194;27.646;2022-10-16T03:08:46;133.60;;;50.50;;
6027;SDS011;3042;43.194;27.646;2022-10-16T03:11:14;117.70;;;50.20;;
6027;SDS011;3042;43.194;27.646;2022-10-16T03:13:41;133.80;;;49.40;;
6027;SDS011;3042;43.194;27.646;2022-10-16T03:16:08;168.37;;;55.80;;
6027;SDS011;3042;43.194;27.646;2022-10-16T03:18:37;150.93;;;53.27;;
6027;SDS011;3042;43.194;27.646;2022-10-16T03:21:04;117.30;;;52.90;;
6027;SDS011;3042;43.194;27.646;2022-10-16T03:23:31;68.67;;;40.17;;
6027;SDS011;3042;43.194;27.646;2022-10-16T03:25:58;79.83;;;42.30;;
6027;SDS011;3042;43.194;27.646;2022-10-16T03:28:26;79.30;;;42.10;;
6027;SDS011;3042;43.194;27.646;2022-10-16T03:30:53;79.87;;;40.40;;
6027;SDS011;3042;43.194;27.646;2022-10-16T03:33:20;75.97;;;42.60;;
6027;SDS011;3042;43.194;27.646;2022-10-16T03:35:52;75.87;;;42.43;;
6027;SDS011;3042;43.194;27.646;2022-10-16T03:38:20;82.53;;;45.43;;
6027;SDS011;3042;43.194;27.646;2022-10-16T03:40:48;49.60;;;31.20;;
6027;SDS011;3042;43.194;27.646;2022-10-16T03:43:15;51.90;;;35.83;;
6027;SDS011;3042;43.194;27.646;2022-10-16T03:45:42;39.37;;;30.33;;
6027;SDS011;3042;43.194;27.646;2022-10-16T03:48:09;33.90;;;25.63;;
6027;SDS011;3042;43.194;27.646;2022-10-16T03:50:37;31.93;;;24.90;;
6027;SDS011;3042;43.194;27.646;2022-10-16T03:53:05;19.53;;;13.80;;
6027;SDS011;3042;43.194;27.646;2022-10-16T03:55:33;13.73;;;8.93;;
6027;SDS011;3042;43.194;27.646;2022-10-16T03:58:01;18.77;;;11.60;;
6027;SDS011;3042;43.194;27.646;2022-10-16T04:00:28;21.47;;;9.20;;
6027;SDS011;3042;43.194;27.646;2022-10-16T04:02:55;16.40;;;12.93;;
6027;SDS011;3042;43.194;27.646;2022-10-16T04:05:23;21.40;;;18.83;;
6027;SDS011;3042;43.194;27.646;2022-10-16T04:07:50;17.40;;;13.70;;
6027;SDS011;3042;43.194;27.646;2022-10-16T04:10:18;22.27;;;17.33;;
6027;SDS011;3042;43.194;27.646;2022-10-16T04:12:46;13.00;;;10.20;;
6027;SDS011;3042;43.194;27.646;2022-10-16T04:15:13;12.60;;;8.00;;
6027;SDS011;3042;43.194;27.646;2022-10-16T04:17:40;17.07;;;11.00;;
6027;SDS011;3042;43.194;27.646;2022-10-16T04:20:08;30.57;;;20.90;;
6027;SDS011;3042;43.194;27.646;2022-10-16T04:22:35;22.53;;;17.97;;
6027;SDS011;3042;43.194;27.646;2022-10-16T04:25:03;41.83;;;21.63;;
6027;SDS011;3042;43.194;27.646;2022-10-16T04:27:32;25.70;;;22.47;;
6027;SDS011;3042;43.194;27.646;2022-10-16T04:29:59;35.60;;;29.37;;
6027;SDS011;3042;43.194;27.646;2022-10-16T04:32:27;75.90;;;31.80;;
6027;SDS011;3042;43.194;27.646;2022-10-16T04:34:54;55.53;;;31.17;;
6027;SDS011;3042;43.194;27.646;2022-10-16T04:37:23;132.27;;;36.70;;
6027;SDS011;3042;43.194;27.646;2022-10-16T04:39:50;171.97;;;42.17;;
6027;SDS011;3042;43.194;27.646;2022-10-16T04:42:18;131.77;;;38.47;;
6027;SDS011;3042;43.194;27.646;2022-10-16T04:44:46;52.53;;;32.67;;
6027;SDS011;3042;43.194;27.646;2022-10-16T04:47:14;108.90;;;43.27;;
6027;SDS011;3042;43.194;27.646;2022-10-16T04:49:41;142.97;;;43.80;;
6027;SDS011;3042;43.194;27.646;2022-10-16T04:52:08;60.10;;;31.47;;
6027;SDS011;3042;43.194;27.646;2022-10-16T04:54:35;84.23;;;39.10;;
6027;SDS011;3042;43.194;27.646;2022-10-16T04:57:03;74.10;;;39.10;;
6027;SDS011;3042;43.194;27.646;2022-10-16T04:59:30;74.17;;;36.10;;
6027;SDS011;3042;43.194;27.646;2022-10-16T05:01:59;64.67;;;36.77;;
6027;SDS011;3042;43.194;27.646;2022-10-16T05:04:26;70.23;;;36.77;;
6027;SDS011;3042;43.194;27.646;2022-10-16T05:06:53;49.77;;;31.53;;
6027;SDS011;3042;43.194;27.646;2022-10-16T05:09:20;74.63;;;39.63;;
6027;SDS011;3042;43.194;27.646;2022-10-16T05:11:48;63.93;;;36.37;;
6027;SDS011;3042;43.194;27.646;2022-10-16T05:14:15;192.97;;;59.23;;
6027;SDS011;3042;43.194;27.646;2022-10-16T05:16:42;63.43;;;36.00;;
6027;SDS011;3042;43.194;27.646;2022-10-16T05:19:11;68.43;;;38.30;;
6027;SDS011;3042;43.194;27.646;2022-10-16T05:21:38;30.27;;;23.87;;
6027;SDS011;3042;43.194;27.646;2022-10-16T05:24:05;20.00;;;18.13;;
6027;SDS011;3042;43.194;27.646;2022-10-16T05:26:34;21.80;;;19.60;;
6027;SDS011;3042;43.194;27.646;2022-10-16T05:29:10;20.90;;;17.70;;
6027;SDS011;3042;43.194;27.646;2022-10-16T05:31:37;32.47;;;11.67;;
6027;SDS011;3042;43.194;27.646;2022-10-16T05:34:04;17.23;;;15.57;;
6027;SDS011;3042;43.194;27.646;2022-10-16T05:36:33;55.83;;;27.90;;
6027;SDS011;3042;43.194;27.646;2022-10-16T05:39:00;55.90;;;23.13;;
6027;SDS011;3042;43.194;27.646;2022-10-16T05:41:27;53.47;;;21.10;;
6027;SDS011;3042;43.194;27.646;2022-10-16T05:43:54;26.00;;;12.70;;
6027;SDS011;3042;43.194;27.646;2022-10-16T05:46:22;31.53;;;22.23;;
6027;SDS011;3042;43.194;27.646;2022-10-16T05:48:51;72.50;;;14.30;;
6027;SDS011;3042;43.194;27.646;2022-10-16T05:51:19;180.07;;;18.43;;
6027;SDS011;3042;43.194;27.646;2022-10-16T05:53:48;9.13;;;7.80;;
6027;SDS011;3042;43.194;27.646;2022-10-16T05:56:15;10.20;;;7.83;;
6027;SDS011;3042;43.194;27.646;2022-10-16T05:58:42;115.27;;;21.20;;
6027;SDS011;3042;43.194;27.646;2022-10-16T06:01:11;22.37;;;20.33;;
6027;SDS011;3042;43.194;27.646;2022-10-16T06:03:39;41.63;;;18.13;;
6027;SDS011;3042;43.194;27.646;2022-10-16T06:06:07;16.00;;;14.60;;
6027;SDS011;3042;43.194;27.646;2022-10-16T06:08:35;24.67;;;19.60;;
6027;SDS011;3042;43.194;27.646;2022-10-16T06:11:04;35.47;;;24.27;;
6027;SDS011;3042;43.194;27.646;2022-10-16T06:13:33;32.93;;;25.33;;
6027;SDS011;3042;43.194;27.646;2022-10-16T06:16:01;57.33;;;24.70;;
6027;SDS011;3042;43.194;27.646;2022-10-16T06:18:29;22.60;;;20.00;;
6027;SDS011;3042;43.194;27.646;2022-10-16T06:20:57;39.30;;;25.50;;
6027;SDS011;3042;43.194;27.646;2022-10-16T06:23:25;36.27;;;26.23;;
6027;SDS011;3042;43.194;27.646;2022-10-16T06:25:54;31.77;;;27.20;;
6027;SDS011;3042;43.194;27.646;2022-10-16T06:28:32;41.77;;;25.97;;
6027;SDS011;3042;43.194;27.646;2022-10-16T06:30:59;40.87;;;27.67;;
6027;SDS011;3042;43.194;27.646;2022-10-16T06:33:27;36.60;;;25.87;;
6027;SDS011;3042;43.194;27.646;2022-10-16T06:35:59;41.40;;;26.73;;
6027;SDS011;3042;43.194;27.646;2022-10-16T06:38:27;21.43;;;19.40;;
6027;SDS011;3042;43.194;27.646;2022-10-16T06:40:54;26.53;;;15.33;;
6027;SDS011;3042;43.194;27.646;2022-10-16T06:43:23;30.77;;;28.23;;
6027;SDS011;3042;43.194;27.646;2022-10-16T06:45:51;40.17;;;35.93;;
6027;SDS011;3042;43.194;27.646;2022-10-16T06:48:19;74.40;;;49.67;;
6027;SDS011;3042;43.194;27.646;2022-10-16T06:50:54;71.87;;;43.93;;
6027;SDS011;3042;43.194;27.646;2022-10-16T06:53:23;16.53;;;14.73;;
6027;SDS011;3042;43.194;27.646;2022-10-16T06:55:50;29.43;;;15.27;;
6027;SDS011;3042;43.194;27.646;2022-10-16T06:58:18;26.57;;;23.67;;
6027;SDS011;3042;43.194;27.646;2022-10-16T07:00:47;30.73;;;27.70;;
6027;SDS011;3042;43.194;27.646;2022-10-16T07:03:14;29.50;;;26.83;;
6027;SDS011;3042;43.194;27.646;2022-10-16T07:05:42;31.33;;;28.13;;
6027;SDS011;3042;43.194;27.646;2022-10-16T07:08:09;26.90;;;24.50;;
6027;SDS011;3042;43.194;27.646;2022-10-16T07:10:37;38.00;;;23.07;;
6027;SDS011;3042;43.194;27.646;2022-10-16T07:13:04;37.73;;;16.80;;
6027;SDS011;3042;43.194;27.646;2022-10-16T07:15:33;32.10;;;23.57;;
6027;SDS011;3042;43.194;27.646;2022-10-16T07:18:02;40.53;;;34.07;;
6027;SDS011;3042;43.194;27.646;2022-10-16T07:20:29;80.77;;;41.60;;
6027;SDS011;3042;43.194;27.646;2022-10-16T07:22:56;31.27;;;28.47;;
6027;SDS011;3042;43.194;27.646;2022-10-16T07:25:23;58.73;;;36.67;;
6027;SDS011;3042;43.194;27.646;2022-10-16T07:27:51;53.57;;;35.57;;
6027;SDS011;3042;43.194;27.646;2022-10-16T07:30:21;66.07;;;54.47;;
6027;SDS011;3042;43.194;27.646;2022-10-16T07:32:48;77.63;;;52.77;;
6027;SDS011;3042;43.194;27.646;2022-10-16T07:35:17;62.40;;;45.57;;
6027;SDS011;3042;43.194;27.646;2022-10-16T07:37:44;88.13;;;58.83;;
6027;SDS011;3042;43.194;27.646;2022-10-16T07:40:12;152.87;;;73.30;;
6027;SDS011;3042;43.194;27.646;2022-10-16T07:42:39;42.37;;;26.40;;
6027;SDS011;3042;43.194;27.646;2022-10-16T07:45:06;20.57;;;18.73;;
6027;SDS011;3042;43.194;27.646;2022-10-16T07:47:34;34.20;;;22.87;;
6027;SDS011;3042;43.194;27.646;2022-10-16T07:50:01;21.67;;;19.70;;
6027;SDS011;3042;43.194;27.646;2022-10-16T07:52:30;37.57;;;21.10;;
6027;SDS011;3042;43.194;27.646;2022-10-16T07:54:58;59.90;;;51.00;;
6027;SDS011;3042;43.194;27.646;2022-10-16T07:57:25;109.57;;;65.53;;
6027;SDS011;3042;43.194;27.646;2022-10-16T07:59:52;70.17;;;54.50;;
6027;SDS011;3042;43.194;27.646;2022-10-16T08:02:19;36.23;;;32.57;;
6027;SDS011;3042;43.194;27.646;2022-10-16T08:04:46;33.63;;;30.83;;
6027;SDS011;3042;43.194;27.646;2022-10-16T08:07:15;52.47;;;42.70;;
6027;SDS011;3042;43.194;27.646;2022-10-16T08:09:44;119.50;;;62.60;;
6027;SDS011;3042;43.194;27.646;2022-10-16T08:12:11;393.43;;;106.90;;
6027;SDS011;3042;43.194;27.646;2022-10-16T08:14:38;82.67;;;53.33;;
6027;SDS011;3042;43.194;27.646;2022-10-16T08:17:05;39.37;;;30.10;;
6027;SDS011;3042;43.194;27.646;2022-10-16T08:19:32;21.87;;;13.97;;
6027;SDS011;3042;43.194;27.646;2022-10-16T08:22:00;30.27;;;27.47;;
6027;SDS011;3042;43.194;27.646;2022-10-16T08:24:27;30.30;;;27.93;;
6027;SDS011;3042;43.194;27.646;2022-10-16T08:26:57;31.77;;;24.37;;
6027;SDS011;3042;43.194;27.646;2022-10-16T08:29:25;141.27;;;77.87;;
6027;SDS011;3042;43.194;27.646;2022-10-16T08:31:52;57.67;;;29.73;;
6027;SDS011;3042;43.194;27.646;2022-10-16T08:34:19;38.87;;;35.47;;
6027;SDS011;3042;43.194;27.646;2022-10-16T08:36:46;71.17;;;57.70;;
6027;SDS011;3042;43.194;27.646;2022-10-16T08:39:13;71.40;;;26.40;;
6027;SDS011;3042;43.194;27.646;2022-10-16T08:41:59;41.47;;;23.00;;
6027;SDS011;3042;43.194;27.646;2022-10-16T08:44:57;27.63;;;23.13;;
6027;SDS011;3042;43.194;27.646;2022-10-16T08:47:39;83.17;;;23.80;;
6027;SDS011;3042;43.194;27.646;2022-10-16T08:50:14;44.03;;;39.63;;
6027;SDS011;3042;43.194;27.646;2022-10-16T08:52:48;84.30;;;41.03;;
6027;SDS011;3042;43.194;27.646;2022-10-16T08:55:24;38.47;;;34.33;;
6027;SDS011;3042;43.194;27.646;2022-10-16T08:57:59;50.60;;;37.03;;
6027;SDS011;3042;43.194;27.646;2022-10-16T09:00:26;42.40;;;33.43;;
6027;SDS011;3042;43.194;27.646;2022-10-16T09:02:57;111.20;;;71.23;;
6027;SDS011;3042;43.194;27.646;2022-10-16T09:05:38;513.00;;;135.57;;
6027;SDS011;3042;43.194;27.646;2022-10-16T09:08:20;515.90;;;143.33;;
6027;SDS011;3042;43.194;27.646;2022-10-16T09:10:55;507.27;;;132.77;;
6027;SDS011;3042;43.194;27.646;2022-10-16T09:13:28;516.17;;;139.63;;
6027;SDS011;3042;43.194;27.646;2022-10-16T09:16:04;516.53;;;137.00;;
6027;SDS011;3042;43.194;27.646;2022-10-16T09:18:43;278.70;;;114.63;;
6027;SDS011;3042;43.194;27.646;2022-10-16T09:21:15;407.07;;;127.50;;
6027;SDS011;3042;43.194;27.646;2022-10-16T09:23:47;514.40;;;140.30;;
6027;SDS011;3042;43.194;27.646;2022-10-16T09:26:15;511.17;;;133.50;;
6027;SDS011;3042;43.194;27.646;2022-10-16T09:28:46;116.37;;;71.20;;
6027;SDS011;3042;43.194;27.646;2022-10-16T09:31:15;94.57;;;71.07;;
6027;SDS011;3042;43.194;27.646;2022-10-16T09:33:45;133.57;;;88.67;;
6027;SDS011;3042;43.194;27.646;2022-10-16T09:36:16;73.30;;;60.97;;
6027;SDS011;3042;43.194;27.646;2022-10-16T09:38:45;133.93;;;92.80;;
6027;SDS011;3042;43.194;27.646;2022-10-16T09:41:16;129.17;;;94.30;;
6027;SDS011;3042;43.194;27.646;2022-10-16T09:43:48;132.60;;;85.30;;
6027;SDS011;3042;43.194;27.646;2022-10-16T09:46:21;139.13;;;92.67;;
6027;SDS011;3042;43.194;27.646;2022-10-16T09:48:53;99.10;;;71.80;;
6027;SDS011;3042;43.194;27.646;2022-10-16T09:51:23;107.97;;;70.63;;
6027;SDS011;3042;43.194;27.646;2022-10-16T09:53:56;78.47;;;59.37;;
6027;SDS011;3042;43.194;27.646;2022-10-16T09:56:26;169.60;;;101.73;;
6027;SDS011;3042;43.194;27.646;2022-10-16T09:58:56;62.07;;;54.80;;
6027;SDS011;3042;43.194;27.646;2022-10-16T10:01:27;48.83;;;43.73;;
6027;SDS011;3042;43.194;27.646;2022-10-16T10:04:01;88.53;;;66.53;;
6027;SDS011;3042;43.194;27.646;2022-10-16T10:06:29;45.13;;;40.70;;
6027;SDS011;3042;43.194;27.646;2022-10-16T10:09:00;44.80;;;39.73;;
6027;SDS011;3042;43.194;27.646;2022-10-16T10:11:41;50.90;;;38.67;;
6027;SDS011;3042;43.194;27.646;2022-10-16T10:14:16;65.97;;;58.53;;
6027;SDS011;3042;43.194;27.646;2022-10-16T10:16:47;78.77;;;44.33;;
6027;SDS011;3042;43.194;27.646;2022-10-16T10:19:15;70.50;;;59.03;;
6027;SDS011;3042;43.194;27.646;2022-10-16T10:21:44;502.33;;;154.37;;
6027;SDS011;3042;43.194;27.646;2022-10-16T10:24:30;494.13;;;134.33;;
6027;SDS011;3042;43.194;27.646;2022-10-16T10:26:59;463.80;;;131.37;;
6027;SDS011;3042;43.194;27.646;2022-10-16T10:29:41;502.40;;;147.67;;
6027;SDS011;3042;43.194;27.646;2022-10-16T10:32:18;472.10;;;148.03;;
6027;SDS011;3042;43.194;27.646;2022-10-16T10:34:56;471.50;;;133.03;;
6027;SDS011;3042;43.194;27.646;2022-10-16T10:37:37;471.60;;;133.83;;
6027;SDS011;3042;43.194;27.646;2022-10-16T10:40:19;450.00;;;129.50;;
6027;SDS011;3042;43.194;27.646;2022-10-16T10:42:57;448.00;;;135.30;;
6027;SDS011;3042;43.194;27.646;2022-10-16T10:45:38;437.50;;;139.47;;
6027;SDS011;3042;43.194;27.646;2022-10-16T10:48:13;419.50;;;132.10;;
6027;SDS011;3042;43.194;27.646;2022-10-16T10:50:51;386.30;;;125.43;;
6027;SDS011;3042;43.194;27.646;2022-10-16T10:53:31;367.40;;;126.97;;
6027;SDS011;3042;43.194;27.646;2022-10-16T10:56:09;365.13;;;141.13;;
6027;SDS011;3042;43.194;27.646;2022-10-16T10:58:58;352.50;;;136.90;;
6027;SDS011;3042;43.194;27.646;2022-10-16T11:01:46;335.20;;;127.87;;
6027;SDS011;3042;43.194;27.646;2022-10-16T11:04:28;337.80;;;130.77;;
6027;SDS011;3042;43.194;27.646;2022-10-16T11:07:16;332.40;;;132.23;;
6027;SDS011;3042;43.194;27.646;2022-10-16T11:09:47;344.27;;;136.73;;
6027;SDS011;3042;43.194;27.646;2022-10-16T11:12:20;364.47;;;139.40;;
6027;SDS011;3042;43.194;27.646;2022-10-16T11:14:54;149.53;;;85.27;;
6027;SDS011;3042;43.194;27.646;2022-10-16T11:17:30;223.33;;;111.07;;
6027;SDS011;3042;43.194;27.646;2022-10-16T11:20:03;425.93;;;128.27;;
6027;SDS011;3042;43.194;27.646;2022-10-16T11:22:38;518.07;;;159.53;;
6027;SDS011;3042;43.194;27.646;2022-10-16T11:25:12;527.27;;;153.67;;
6027;SDS011;3042;43.194;27.646;2022-10-16T11:27:43;492.67;;;142.77;;
6027;SDS011;3042;43.194;27.646;2022-10-16T11:30:16;483.57;;;141.23;;
6027;SDS011;3042;43.194;27.646;2022-10-16T11:32:54;250.37;;;128.17;;
6027;SDS011;3042;43.194;27.646;2022-10-16T11:35:32;251.50;;;115.07;;
6027;SDS011;3042;43.194;27.646;2022-10-16T11:38:09;343.67;;;132.87;;
6027;SDS011;3042;43.194;27.646;2022-10-16T11:40:45;511.07;;;160.23;;
6027;SDS011;3042;43.194;27.646;2022-10-16T11:43:21;577.87;;;174.80;;
6027;SDS011;3042;43.194;27.646;2022-10-16T11:45:53;519.53;;;156.40;;
6027;SDS011;3042;43.194;27.646;2022-10-16T11:48:30;504.17;;;165.33;;
6027;SDS011;3042;43.194;27.646;2022-10-16T11:51:06;519.27;;;170.60;;
6027;SDS011;3042;43.194;27.646;2022-10-16T11:53:40;478.43;;;160.13;;
6027;SDS011;3042;43.194;27.646;2022-10-16T11:56:13;477.53;;;148.07;;
6027;SDS011;3042;43.194;27.646;2022-10-16T11:58:46;482.43;;;156.50;;
6027;SDS011;3042;43.194;27.646;2022-10-16T12:01:22;518.33;;;155.27;;
6027;SDS011;3042;43.194;27.646;2022-10-16T12:03:59;490.83;;;161.03;;
6027;SDS011;3042;43.194;27.646;2022-10-16T12:06:34;520.30;;;151.90;;
6027;SDS011;3042;43.194;27.646;2022-10-16T12:09:09;519.93;;;152.90;;
6027;SDS011;3042;43.194;27.646;2022-10-16T12:11:44;514.17;;;143.70;;
6027;SDS011;3042;43.194;27.646;2022-10-16T12:14:22;524.17;;;158.07;;
6027;SDS011;3042;43.194;27.646;2022-10-16T12:17:01;518.57;;;150.70;;
6027;SDS011;3042;43.194;27.646;2022-10-16T12:19:32;516.33;;;147.93;;
6027;SDS011;3042;43.194;27.646;2022-10-16T12:22:00;516.87;;;150.43;;
6027;SDS011;3042;43.194;27.646;2022-10-16T12:24:32;520.53;;;149.97;;
6027;SDS011;3042;43.194;27.646;2022-10-16T12:27:04;580.27;;;179.50;;
6027;SDS011;3042;43.194;27.646;2022-10-16T12:29:54;67.33;;;43.93;;
6027;SDS011;3042;43.194;27.646;2022-10-16T12:32:26;37.67;;;26.23;;
6027;SDS011;3042;43.194;27.646;2022-10-16T12:34:58;15.17;;;13.63;;
6027;SDS011;3042;43.194;27.646;2022-10-16T12:37:27;77.63;;;34.10;;
6027;SDS011;3042;43.194;27.646;2022-10-16T12:39:57;80.40;;;14.23;;
6027;SDS011;3042;43.194;27.646;2022-10-16T12:42:33;17.53;;;11.53;;
6027;SDS011;3042;43.194;27.646;2022-10-16T12:45:12;21.87;;;13.33;;
6027;SDS011;3042;43.194;27.646;2022-10-16T12:47:51;35.03;;;11.70;;
6027;SDS011;3042;43.194;27.646;2022-10-16T12:50:25;18.13;;;14.70;;
6027;SDS011;3042;43.194;27.646;2022-10-16T12:52:56;13.83;;;12.60;;
6027;SDS011;3042;43.194;27.646;2022-10-16T12:55:26;50.20;;;15.60;;
6027;SDS011;3042;43.194;27.646;2022-10-16T12:58:05;14.07;;;12.77;;
6027;SDS011;3042;43.194;27.646;2022-10-16T13:00:43;27.03;;;15.20;;
6027;SDS011;3042;43.194;27.646;2022-10-16T13:06:19;16.47;;;15.30;;
6027;SDS011;3042;43.194;27.646;2022-10-16T13:08:56;26.23;;;23.63;;
6027;SDS011;3042;43.194;27.646;2022-10-16T13:11:42;47.60;;;39.93;;
6027;SDS011;3042;43.194;27.646;2022-10-16T13:14:23;29.43;;;21.83;;
6027;SDS011;3042;43.194;27.646;2022-10-16T13:17:04;45.53;;;32.13;;
6027;SDS011;3042;43.194;27.646;2022-10-16T13:19:38;36.17;;;33.70;;
6027;SDS011;3042;43.194;27.646;2022-10-16T13:22:17;23.70;;;21.93;;
6027;SDS011;3042;43.194;27.646;2022-10-16T13:24:59;37.67;;;27.63;;
6027;SDS011;3042;43.194;27.646;2022-10-16T13:27:38;27.03;;;22.63;;
6027;SDS011;3042;43.194;27.646;2022-10-16T13:30:15;23.70;;;22.33;;
6027;SDS011;3042;43.194;27.646;2022-10-16T13:32:45;170.70;;;105.87;;
6027;SDS011;3042;43.194;27.646;2022-10-16T13:35:21;68.90;;;45.03;;
6027;SDS011;3042;43.194;27.646;2022-10-16T13:37:50;88.20;;;24.70;;
6027;SDS011;3042;43.194;27.646;2022-10-16T13:40:23;28.27;;;16.47;;
6027;SDS011;3042;43.194;27.646;2022-10-16T13:42:50;20.00;;;18.23;;
6027;SDS011;3042;43.194;27.646;2022-10-16T13:45:20;31.00;;;23.43;;
6027;SDS011;3042;43.194;27.646;2022-10-16T13:47:49;33.00;;;22.80;;
6027;SDS011;3042;43.194;27.646;2022-10-16T13:50:16;21.00;;;14.17;;
6027;SDS011;3042;43.194;27.646;2022-10-16T13:52:44;21.23;;;20.00;;
6027;SDS011;3042;43.194;27.646;2022-10-16T13:55:14;19.73;;;15.60;;
6027;SDS011;3042;43.194;27.646;2022-10-16T13:57:45;53.40;;;27.63;;
6027;SDS011;3042;43.194;27.646;2022-10-16T14:00:19;63.17;;;45.60;;
6027;SDS011;3042;43.194;27.646;2022-10-16T14:02:52;101.83;;;88.87;;
6027;SDS011;3042;43.194;27.646;2022-10-16T14:05:25;108.70;;;89.60;;
6027;SDS011;3042;43.194;27.646;2022-10-16T14:07:53;21.03;;;19.40;;
6027;SDS011;3042;43.194;27.646;2022-10-16T14:10:24;16.83;;;15.83;;
6027;SDS011;3042;43.194;27.646;2022-10-16T14:12:56;50.60;;;26.30;;
6027;SDS011;3042;43.194;27.646;2022-10-16T14:15:25;20.57;;;18.80;;
6027;SDS011;3042;43.194;27.646;2022-10-16T14:17:52;26.67;;;25.07;;
6027;SDS011;3042;43.194;27.646;2022-10-16T14:20:22;40.40;;;37.10;;
6027;SDS011;3042;43.194;27.646;2022-10-16T14:23:00;35.67;;;27.10;;
6027;SDS011;3042;43.194;27.646;2022-10-16T14:25:33;53.10;;;48.80;;
6027;SDS011;3042;43.194;27.646;2022-10-16T14:28:02;69.80;;;57.77;;
6027;SDS011;3042;43.194;27.646;2022-10-16T14:30:35;58.00;;;40.50;;
6027;SDS011;3042;43.194;27.646;2022-10-16T14:33:23;39.87;;;36.77;;
6027;SDS011;3042;43.194;27.646;2022-10-16T14:36:05;39.23;;;36.20;;
6027;SDS011;3042;43.194;27.646;2022-10-16T14:38:53;100.73;;;53.60;;
6027;SDS011;3042;43.194;27.646;2022-10-16T14:41:40;64.73;;;48.37;;
6027;SDS011;3042;43.194;27.646;2022-10-16T14:44:31;49.77;;;36.87;;
6027;SDS011;3042;43.194;27.646;2022-10-16T14:47:17;63.93;;;37.30;;
6027;SDS011;3042;43.194;27.646;2022-10-16T14:49:59;24.40;;;14.37;;
6027;SDS011;3042;43.194;27.646;2022-10-16T14:52:37;70.53;;;38.67;;
6027;SDS011;3042;43.194;27.646;2022-10-16T14:55:11;31.60;;;22.33;;